Garfield County Regional Airport
KRIL : now visible

Airfield :











YOU CAN JOIN US ON...

 
LOGIN :

Register | Disclaimer

   EN    FR    IT 

 









Legend :    VFR   Marginal VFR   IFR   Intensive IFR   Very Intensive IFR
Visi :
Ceiling :
>= 8 km
>= 3000ft
5 to 8 km
1000 to 3000 ft
1500m to 5 km
500 to 1000 ft
800 to 1500m
200 to 500 ft
< 800m
< 200 ft
Symbols :   Thunderstorms  Fog  Heavy snow  Heavy precipitations  Wind > 20 kt







- Airport Elevation : 5548 ft


KRIL - Garfield County Regional

CURRENT METAR :
  • 221853Z AUTO 00000KT 10SM BKN090 12/02 A2972 RMK AO2 SLP036 T01170022 $

EXPIRED METARs :
  • 221753Z AUTO 29005KT 10SM SCT070 BKN090 11/03 A2973 RMK AO2 SLP042 60000 T01060028 10106 20044 51006 $
  • 221653Z AUTO 00000KT 10SM BKN070 09/03 A2973 RMK AO2 SLP044 T00890033

TAF KRIL
Valid from the 22 at 18:00 until the 23 at 18:00 UTC


221720Z 2218/2318 27007KT P6SM VCSH SCT030 BKN050
FM222000 22008G18KT P6SM VCTS SCT050CB BKN070
FM230200 16007KT P6SM VCSH SCT070 BKN090
FM230600 02007KT P6SM VCSH BKN080
FM231100 09006KT 6SM -SHRA SCT030 BKN050
FM231400 18008KT P6SM -SHRA SCT060 OVC070
KZDV FIR / North America



MET'MAP, your aeronautical weather chart ! - Copyright ORBIFLY December 2007 - Disclaimer

ORBIFLY MET'MAP TEAM :

Programming & Development : Alexandra Zaïnal
Concept & Development : Baudouin d'Aumeries
Co-Development & Prog : Marc-Olivier Méhu
Technical & hardware support : Manuel Goepfert

Contact : metmap@orbifly.com




SOURCES & CREDITS :

   NOAA       Earth
Advisory